sensor_id;sensor_type;location;lat;lon;timestamp;temperature;humidity
18511;DHT22;9384;48.044;11.616;2022-10-16T00:01:06;11.40;99.90
18511;DHT22;9384;48.044;11.616;2022-10-16T00:03:34;11.40;99.90
18511;DHT22;9384;48.044;11.616;2022-10-16T00:06:01;11.40;99.90
18511;DHT22;9384;48.044;11.616;2022-10-16T00:08:28;11.50;99.90
18511;DHT22;9384;48.044;11.616;2022-10-16T00:10:59;11.40;99.90
18511;DHT22;9384;48.044;11.616;2022-10-16T00:13:28;11.40;99.90
18511;DHT22;9384;48.044;11.616;2022-10-16T00:18:24;11.40;99.90
18511;DHT22;9384;48.044;11.616;2022-10-16T00:20:51;11.30;99.90
18511;DHT22;9384;48.044;11.616;2022-10-16T00:23:18;11.20;99.90
18511;DHT22;9384;48.044;11.616;2022-10-16T00:25:53;11.20;99.90
18511;DHT22;9384;48.044;11.616;2022-10-16T00:28:20;11.00;99.90
18511;DHT22;9384;48.044;11.616;2022-10-16T00:30:49;11.00;99.90
18511;DHT22;9384;48.044;11.616;2022-10-16T00:33:15;10.90;99.90
18511;DHT22;9384;48.044;11.616;2022-10-16T00:35:42;10.80;99.90
18511;DHT22;9384;48.044;11.616;2022-10-16T00:38:09;10.80;99.90
18511;DHT22;9384;48.044;11.616;2022-10-16T00:40:36;10.80;99.90
18511;DHT22;9384;48.044;11.616;2022-10-16T00:43:08;10.70;99.90
18511;DHT22;9384;48.044;11.616;2022-10-16T00:45:35;10.80;99.90
18511;DHT22;9384;48.044;11.616;2022-10-16T00:48:04;10.80;99.90
18511;DHT22;9384;48.044;11.616;2022-10-16T00:50:33;10.90;99.90
18511;DHT22;9384;48.044;11.616;2022-10-16T00:53:01;11.00;99.90
18511;DHT22;9384;48.044;11.616;2022-10-16T00:55:28;11.00;99.90
18511;DHT22;9384;48.044;11.616;2022-10-16T00:57:56;11.00;99.90
18511;DHT22;9384;48.044;11.616;2022-10-16T01:00:25;11.00;99.90
18511;DHT22;9384;48.044;11.616;2022-10-16T01:02:54;11.00;99.90
18511;DHT22;9384;48.044;11.616;2022-10-16T01:05:23;10.90;99.90
18511;DHT22;9384;48.044;11.616;2022-10-16T01:07:57;10.90;99.90
18511;DHT22;9384;48.044;11.616;2022-10-16T01:10:30;10.90;99.90
18511;DHT22;9384;48.044;11.616;2022-10-16T01:13:01;10.90;99.90
18511;DHT22;9384;48.044;11.616;2022-10-16T01:15:34;10.90;99.90
18511;DHT22;9384;48.044;11.616;2022-10-16T01:18:05;10.90;99.90
18511;DHT22;9384;48.044;11.616;2022-10-16T01:20:42;11.00;99.90
18511;DHT22;9384;48.044;11.616;2022-10-16T01:23:20;11.10;99.90
18511;DHT22;9384;48.044;11.616;2022-10-16T01:26:11;11.10;99.90
18511;DHT22;9384;48.044;11.616;2022-10-16T01:28:45;11.10;99.90
18511;DHT22;9384;48.044;11.616;2022-10-16T01:31:15;11.00;99.90
18511;DHT22;9384;48.044;11.616;2022-10-16T01:33:45;11.10;99.90
18511;DHT22;9384;48.044;11.616;2022-10-16T01:36:16;11.10;99.90
18511;DHT22;9384;48.044;11.616;2022-10-16T01:38:48;11.10;99.90
18511;DHT22;9384;48.044;11.616;2022-10-16T01:41:19;11.20;99.90
18511;DHT22;9384;48.044;11.616;2022-10-16T01:43:52;11.20;99.90
18511;DHT22;9384;48.044;11.616;2022-10-16T01:46:21;11.20;99.90
18511;DHT22;9384;48.044;11.616;2022-10-16T01:48:49;11.30;99.90
18511;DHT22;9384;48.044;11.616;2022-10-16T01:51:18;11.30;99.90
18511;DHT22;9384;48.044;11.616;2022-10-16T01:53:49;11.30;99.90
18511;DHT22;9384;48.044;11.616;2022-10-16T01:56:19;11.40;99.90
18511;DHT22;9384;48.044;11.616;2022-10-16T01:58:52;11.40;99.90
18511;DHT22;9384;48.044;11.616;2022-10-16T02:01:22;11.30;99.90
18511;DHT22;9384;48.044;11.616;2022-10-16T02:03:53;11.40;99.90
18511;DHT22;9384;48.044;11.616;2022-10-16T02:06:21;11.40;99.90
18511;DHT22;9384;48.044;11.616;2022-10-16T02:08:49;11.30;99.90
18511;DHT22;9384;48.044;11.616;2022-10-16T02:11:15;11.30;99.90
18511;DHT22;9384;48.044;11.616;2022-10-16T02:13:46;11.20;99.90
18511;DHT22;9384;48.044;11.616;2022-10-16T02:16:15;11.30;99.90
18511;DHT22;9384;48.044;11.616;2022-10-16T02:18:43;11.30;99.90
18511;DHT22;9384;48.044;11.616;2022-10-16T02:21:15;11.30;99.90
18511;DHT22;9384;48.044;11.616;2022-10-16T02:23:48;11.30;99.90
18511;DHT22;9384;48.044;11.616;2022-10-16T02:26:24;11.30;99.90
18511;DHT22;9384;48.044;11.616;2022-10-16T02:28:58;11.30;99.90
18511;DHT22;9384;48.044;11.616;2022-10-16T02:31:31;11.30;99.90
18511;DHT22;9384;48.044;11.616;2022-10-16T02:34:02;11.20;99.90
18511;DHT22;9384;48.044;11.616;2022-10-16T02:36:31;11.20;99.90
18511;DHT22;9384;48.044;11.616;2022-10-16T02:38:59;11.20;99.90
18511;DHT22;9384;48.044;11.616;2022-10-16T02:41:26;11.20;99.90
18511;DHT22;9384;48.044;11.616;2022-10-16T02:43:54;11.10;99.90
18511;DHT22;9384;48.044;11.616;2022-10-16T02:46:21;11.20;99.90
18511;DHT22;9384;48.044;11.616;2022-10-16T02:48:50;11.20;99.90
18511;DHT22;9384;48.044;11.616;2022-10-16T02:51:16;11.20;99.90
18511;DHT22;9384;48.044;11.616;2022-10-16T02:53:43;11.10;99.90
18511;DHT22;9384;48.044;11.616;2022-10-16T02:56:10;11.10;99.90
18511;DHT22;9384;48.044;11.616;2022-10-16T02:58:37;11.10;99.90
18511;DHT22;9384;48.044;11.616;2022-10-16T03:01:04;11.10;99.90
18511;DHT22;9384;48.044;11.616;2022-10-16T03:03:31;11.20;99.90
18511;DHT22;9384;48.044;11.616;2022-10-16T03:05:59;11.30;99.90
18511;DHT22;9384;48.044;11.616;2022-10-16T03:08:26;11.30;99.90
18511;DHT22;9384;48.044;11.616;2022-10-16T03:10:52;11.20;99.90
18511;DHT22;9384;48.044;11.616;2022-10-16T03:13:19;11.10;99.90
18511;DHT22;9384;48.044;11.616;2022-10-16T03:15:47;11.00;99.90
18511;DHT22;9384;48.044;11.616;2022-10-16T03:18:14;11.00;99.90
18511;DHT22;9384;48.044;11.616;2022-10-16T03:20:41;11.00;99.90
18511;DHT22;9384;48.044;11.616;2022-10-16T03:23:10;11.00;99.90
18511;DHT22;9384;48.044;11.616;2022-10-16T03:25:37;11.10;99.90
18511;DHT22;9384;48.044;11.616;2022-10-16T03:28:04;11.20;99.90
18511;DHT22;9384;48.044;11.616;2022-10-16T03:30:31;11.20;99.90
18511;DHT22;9384;48.044;11.616;2022-10-16T03:32:58;11.10;99.90
18511;DHT22;9384;48.044;11.616;2022-10-16T03:35:25;10.90;99.90
18511;DHT22;9384;48.044;11.616;2022-10-16T03:37:51;10.70;99.90
18511;DHT22;9384;48.044;11.616;2022-10-16T03:40:20;10.60;99.90
18511;DHT22;9384;48.044;11.616;2022-10-16T03:42:46;10.60;99.90
18511;DHT22;9384;48.044;11.616;2022-10-16T03:45:13;10.60;99.90
18511;DHT22;9384;48.044;11.616;2022-10-16T03:47:41;10.70;99.90
18511;DHT22;9384;48.044;11.616;2022-10-16T03:50:08;10.70;99.90
18511;DHT22;9384;48.044;11.616;2022-10-16T03:52:35;10.80;99.90
18511;DHT22;9384;48.044;11.616;2022-10-16T03:55:02;10.90;99.90
18511;DHT22;9384;48.044;11.616;2022-10-16T03:57:30;11.00;99.90
18511;DHT22;9384;48.044;11.616;2022-10-16T03:59:57;11.10;99.90
18511;DHT22;9384;48.044;11.616;2022-10-16T04:02:24;11.20;99.90
18511;DHT22;9384;48.044;11.616;2022-10-16T04:04:51;11.20;99.90
18511;DHT22;9384;48.044;11.616;2022-10-16T04:07:18;11.30;99.90
18511;DHT22;9384;48.044;11.616;2022-10-16T04:09:45;11.40;99.90
18511;DHT22;9384;48.044;11.616;2022-10-16T04:12:11;11.50;99.90
18511;DHT22;9384;48.044;11.616;2022-10-16T04:14:40;11.60;99.90
18511;DHT22;9384;48.044;11.616;2022-10-16T04:17:06;11.60;99.90
18511;DHT22;9384;48.044;11.616;2022-10-16T04:19:33;11.70;99.90
18511;DHT22;9384;48.044;11.616;2022-10-16T04:22:00;11.70;99.90
18511;DHT22;9384;48.044;11.616;2022-10-16T04:24:27;11.70;99.90
18511;DHT22;9384;48.044;11.616;2022-10-16T04:26:54;11.70;99.90
18511;DHT22;9384;48.044;11.616;2022-10-16T04:29:20;11.60;99.90
18511;DHT22;9384;48.044;11.616;2022-10-16T04:31:49;11.60;99.90
18511;DHT22;9384;48.044;11.616;2022-10-16T04:34:16;11.50;99.90
18511;DHT22;9384;48.044;11.616;2022-10-16T04:36:42;11.50;99.90
18511;DHT22;9384;48.044;11.616;2022-10-16T04:39:09;11.60;99.90
18511;DHT22;9384;48.044;11.616;2022-10-16T04:41:36;11.60;99.90
18511;DHT22;9384;48.044;11.616;2022-10-16T04:44:03;11.60;99.90
18511;DHT22;9384;48.044;11.616;2022-10-16T04:46:30;11.60;99.90
18511;DHT22;9384;48.044;11.616;2022-10-16T04:48:58;11.70;99.90
18511;DHT22;9384;48.044;11.616;2022-10-16T04:51:25;11.70;99.90
18511;DHT22;9384;48.044;11.616;2022-10-16T04:53:53;11.70;99.90
18511;DHT22;9384;48.044;11.616;2022-10-16T04:56:20;11.70;99.90
18511;DHT22;9384;48.044;11.616;2022-10-16T04:58:47;11.80;99.90
18511;DHT22;9384;48.044;11.616;2022-10-16T05:01:14;11.70;99.90
18511;DHT22;9384;48.044;11.616;2022-10-16T05:03:41;11.70;99.90
18511;DHT22;9384;48.044;11.616;2022-10-16T05:06:09;11.70;99.90
18511;DHT22;9384;48.044;11.616;2022-10-16T05:08:36;11.70;99.90
18511;DHT22;9384;48.044;11.616;2022-10-16T05:11:03;11.70;99.90
18511;DHT22;9384;48.044;11.616;2022-10-16T05:13:29;11.80;99.90
18511;DHT22;9384;48.044;11.616;2022-10-16T05:15:56;11.80;99.90
18511;DHT22;9384;48.044;11.616;2022-10-16T05:18:23;11.70;99.90
18511;DHT22;9384;48.044;11.616;2022-10-16T05:20:50;11.70;99.90
18511;DHT22;9384;48.044;11.616;2022-10-16T05:23:18;11.70;99.90
18511;DHT22;9384;48.044;11.616;2022-10-16T05:25:52;11.70;99.90
18511;DHT22;9384;48.044;11.616;2022-10-16T05:28:20;11.70;99.90
18511;DHT22;9384;48.044;11.616;2022-10-16T05:30:47;11.80;99.90
18511;DHT22;9384;48.044;11.616;2022-10-16T05:33:13;11.70;99.90
18511;DHT22;9384;48.044;11.616;2022-10-16T05:35:40;11.70;99.90
18511;DHT22;9384;48.044;11.616;2022-10-16T05:38:07;11.70;99.90
18511;DHT22;9384;48.044;11.616;2022-10-16T05:40:36;11.60;99.90
18511;DHT22;9384;48.044;11.616;2022-10-16T05:43:02;11.60;99.90
18511;DHT22;9384;48.044;11.616;2022-10-16T05:45:30;11.70;99.90
18511;DHT22;9384;48.044;11.616;2022-10-16T05:47:56;11.70;99.90
18511;DHT22;9384;48.044;11.616;2022-10-16T05:50:23;11.60;99.90
18511;DHT22;9384;48.044;11.616;2022-10-16T05:52:50;11.60;99.90
18511;DHT22;9384;48.044;11.616;2022-10-16T05:55:17;11.60;99.90
18511;DHT22;9384;48.044;11.616;2022-10-16T05:57:46;11.60;99.90
18511;DHT22;9384;48.044;11.616;2022-10-16T06:00:13;11.60;99.90
18511;DHT22;9384;48.044;11.616;2022-10-16T06:02:40;11.60;99.90
18511;DHT22;9384;48.044;11.616;2022-10-16T06:05:07;11.60;99.90
18511;DHT22;9384;48.044;11.616;2022-10-16T06:07:34;11.70;99.90
18511;DHT22;9384;48.044;11.616;2022-10-16T06:10:02;11.70;99.90
18511;DHT22;9384;48.044;11.616;2022-10-16T06:12:30;11.70;99.90
18511;DHT22;9384;48.044;11.616;2022-10-16T06:14:58;11.80;99.90
18511;DHT22;9384;48.044;11.616;2022-10-16T06:17:25;11.80;99.90
18511;DHT22;9384;48.044;11.616;2022-10-16T06:19:51;11.90;99.90
18511;DHT22;9384;48.044;11.616;2022-10-16T06:22:18;11.90;99.90
18511;DHT22;9384;48.044;11.616;2022-10-16T06:24:45;11.90;99.90
18511;DHT22;9384;48.044;11.616;2022-10-16T06:27:13;11.90;99.90
18511;DHT22;9384;48.044;11.616;2022-10-16T06:29:39;11.90;99.90
18511;DHT22;9384;48.044;11.616;2022-10-16T06:32:09;12.00;99.90
18511;DHT22;9384;48.044;11.616;2022-10-16T06:34:36;12.00;99.90
18511;DHT22;9384;48.044;11.616;2022-10-16T06:37:05;12.10;99.90
18511;DHT22;9384;48.044;11.616;2022-10-16T06:39:32;12.20;99.90
18511;DHT22;9384;48.044;11.616;2022-10-16T06:41:59;12.30;99.90
18511;DHT22;9384;48.044;11.616;2022-10-16T06:44:25;12.40;99.90
18511;DHT22;9384;48.044;11.616;2022-10-16T06:46:52;12.40;99.90
18511;DHT22;9384;48.044;11.616;2022-10-16T06:49:20;12.50;99.90
18511;DHT22;9384;48.044;11.616;2022-10-16T06:51:48;12.50;99.90
18511;DHT22;9384;48.044;11.616;2022-10-16T06:54:15;12.60;99.90
18511;DHT22;9384;48.044;11.616;2022-10-16T06:56:43;12.70;99.90
18511;DHT22;9384;48.044;11.616;2022-10-16T06:59:10;12.70;99.90
18511;DHT22;9384;48.044;11.616;2022-10-16T07:01:37;12.80;99.90
18511;DHT22;9384;48.044;11.616;2022-10-16T07:04:04;12.80;99.90
18511;DHT22;9384;48.044;11.616;2022-10-16T07:06:33;12.90;99.90
18511;DHT22;9384;48.044;11.616;2022-10-16T07:09:07;12.90;99.90
18511;DHT22;9384;48.044;11.616;2022-10-16T07:11:36;13.00;99.90
18511;DHT22;9384;48.044;11.616;2022-10-16T07:14:04;13.10;99.90
18511;DHT22;9384;48.044;11.616;2022-10-16T07:16:32;13.20;99.90
18511;DHT22;9384;48.044;11.616;2022-10-16T07:19:00;13.40;99.90
18511;DHT22;9384;48.044;11.616;2022-10-16T07:21:29;13.60;99.90
18511;DHT22;9384;48.044;11.616;2022-10-16T07:23:59;13.70;99.90
18511;DHT22;9384;48.044;11.616;2022-10-16T07:26:28;13.90;99.90
18511;DHT22;9384;48.044;11.616;2022-10-16T07:48:40;14.10;99.90
18511;DHT22;9384;48.044;11.616;2022-10-16T07:56:06;15.70;99.90
18511;DHT22;9384;48.044;11.616;2022-10-16T07:58:35;16.20;99.90
18511;DHT22;9384;48.044;11.616;2022-10-16T08:01:03;16.30;99.90
18511;DHT22;9384;48.044;11.616;2022-10-16T08:03:30;16.50;99.90
18511;DHT22;9384;48.044;11.616;2022-10-16T08:05:58;16.70;99.90
18511;DHT22;9384;48.044;11.616;2022-10-16T08:08:26;16.80;99.90
18511;DHT22;9384;48.044;11.616;2022-10-16T08:10:53;16.80;99.90
18511;DHT22;9384;48.044;11.616;2022-10-16T08:13:19;16.80;99.90
18511;DHT22;9384;48.044;11.616;2022-10-16T08:15:48;16.90;99.90
18511;DHT22;9384;48.044;11.616;2022-10-16T08:18:15;17.00;99.90
18511;DHT22;9384;48.044;11.616;2022-10-16T08:20:43;17.20;99.90
18511;DHT22;9384;48.044;11.616;2022-10-16T08:23:11;17.30;99.90
18511;DHT22;9384;48.044;11.616;2022-10-16T08:25:39;17.40;99.90
18511;DHT22;9384;48.044;11.616;2022-10-16T08:28:07;17.60;99.90
18511;DHT22;9384;48.044;11.616;2022-10-16T08:30:34;17.70;99.90
18511;DHT22;9384;48.044;11.616;2022-10-16T08:33:03;17.80;99.90
18511;DHT22;9384;48.044;11.616;2022-10-16T08:35:30;17.90;99.90
18511;DHT22;9384;48.044;11.616;2022-10-16T08:37:57;18.10;99.90
18511;DHT22;9384;48.044;11.616;2022-10-16T08:40:26;18.20;99.90
18511;DHT22;9384;48.044;11.616;2022-10-16T08:43:14;18.30;99.90
18511;DHT22;9384;48.044;11.616;2022-10-16T08:46:04;18.50;99.90
18511;DHT22;9384;48.044;11.616;2022-10-16T08:48:40;18.60;99.90
18511;DHT22;9384;48.044;11.616;2022-10-16T08:51:14;18.70;99.90
18511;DHT22;9384;48.044;11.616;2022-10-16T08:53:46;18.80;99.90
18511;DHT22;9384;48.044;11.616;2022-10-16T08:56:15;18.90;99.90
18511;DHT22;9384;48.044;11.616;2022-10-16T08:58:45;19.00;99.90
18511;DHT22;9384;48.044;11.616;2022-10-16T09:01:14;19.10;99.90
18511;DHT22;9384;48.044;11.616;2022-10-16T09:03:57;19.30;99.90
18511;DHT22;9384;48.044;11.616;2022-10-16T09:06:32;19.50;99.90
18511;DHT22;9384;48.044;11.616;2022-10-16T09:11:59;19.70;99.90
18511;DHT22;9384;48.044;11.616;2022-10-16T09:14:44;20.10;99.90
18511;DHT22;9384;48.044;11.616;2022-10-16T09:17:27;20.10;99.90
18511;DHT22;9384;48.044;11.616;2022-10-16T09:20:14;20.30;99.90
18511;DHT22;9384;48.044;11.616;2022-10-16T09:22:45;20.60;99.90
18511;DHT22;9384;48.044;11.616;2022-10-16T09:25:14;20.90;99.90
18511;DHT22;9384;48.044;11.616;2022-10-16T09:27:42;21.00;99.90
18511;DHT22;9384;48.044;11.616;2022-10-16T09:30:13;21.20;99.90
18511;DHT22;9384;48.044;11.616;2022-10-16T09:32:40;21.10;99.90
18511;DHT22;9384;48.044;11.616;2022-10-16T09:35:14;21.10;99.90
18511;DHT22;9384;48.044;11.616;2022-10-16T09:37:43;21.00;99.90
18511;DHT22;9384;48.044;11.616;2022-10-16T09:40:23;21.00;99.90
18511;DHT22;9384;48.044;11.616;2022-10-16T09:42:53;21.20;99.90
18511;DHT22;9384;48.044;11.616;2022-10-16T09:45:23;21.30;99.90
18511;DHT22;9384;48.044;11.616;2022-10-16T09:47:50;21.30;99.90
18511;DHT22;9384;48.044;11.616;2022-10-16T22:08:12;11.70;99.90
18511;DHT22;9384;48.044;11.616;2022-10-16T22:10:40;11.70;99.90
18511;DHT22;9384;48.044;11.616;2022-10-16T22:13:07;11.70;99.90
18511;DHT22;9384;48.044;11.616;2022-10-16T22:15:34;11.60;99.90
18511;DHT22;9384;48.044;11.616;2022-10-16T22:18:02;11.60;99.90
18511;DHT22;9384;48.044;11.616;2022-10-16T22:20:28;11.50;99.90
18511;DHT22;9384;48.044;11.616;2022-10-16T22:22:55;11.50;99.90
18511;DHT22;9384;48.044;11.616;2022-10-16T22:25:22;11.50;99.90
18511;DHT22;9384;48.044;11.616;2022-10-16T22:27:49;11.50;99.90
18511;DHT22;9384;48.044;11.616;2022-10-16T22:30:16;11.50;99.90
18511;DHT22;9384;48.044;11.616;2022-10-16T22:32:42;11.50;99.90
18511;DHT22;9384;48.044;11.616;2022-10-16T22:35:10;11.60;99.90
18511;DHT22;9384;48.044;11.616;2022-10-16T22:37:37;11.40;99.90
18511;DHT22;9384;48.044;11.616;2022-10-16T22:40:05;11.20;99.90
18511;DHT22;9384;48.044;11.616;2022-10-16T22:42:32;11.20;99.90
18511;DHT22;9384;48.044;11.616;2022-10-16T22:44:59;11.20;99.90
18511;DHT22;9384;48.044;11.616;2022-10-16T22:47:25;11.20;99.90
18511;DHT22;9384;48.044;11.616;2022-10-16T22:49:52;11.10;99.90
18511;DHT22;9384;48.044;11.616;2022-10-16T22:52:21;11.10;99.90
18511;DHT22;9384;48.044;11.616;2022-10-16T22:54:47;11.10;99.90
18511;DHT22;9384;48.044;11.616;2022-10-16T22:57:14;11.10;99.90
18511;DHT22;9384;48.044;11.616;2022-10-16T22:59:41;11.00;99.90
18511;DHT22;9384;48.044;11.616;2022-10-16T23:02:08;11.00;99.90
18511;DHT22;9384;48.044;11.616;2022-10-16T23:04:34;11.00;99.90
18511;DHT22;9384;48.044;11.616;2022-10-16T23:07:01;11.00;99.90
18511;DHT22;9384;48.044;11.616;2022-10-16T23:09:29;10.90;99.90
18511;DHT22;9384;48.044;11.616;2022-10-16T23:11:56;10.90;99.90
18511;DHT22;9384;48.044;11.616;2022-10-16T23:14:23;10.90;99.90
18511;DHT22;9384;48.044;11.616;2022-10-16T23:16:50;10.90;99.90
18511;DHT22;9384;48.044;11.616;2022-10-16T23:19:17;11.00;99.90
18511;DHT22;9384;48.044;11.616;2022-10-16T23:21:44;11.10;99.90
18511;DHT22;9384;48.044;11.616;2022-10-16T23:24:11;11.10;99.90
18511;DHT22;9384;48.044;11.616;2022-10-16T23:26:39;11.20;99.90
18511;DHT22;9384;48.044;11.616;2022-10-16T23:29:05;11.20;99.90
18511;DHT22;9384;48.044;11.616;2022-10-16T23:31:32;11.30;99.90
18511;DHT22;9384;48.044;11.616;2022-10-16T23:33:59;11.30;99.90
18511;DHT22;9384;48.044;11.616;2022-10-16T23:36:26;11.40;99.90
18511;DHT22;9384;48.044;11.616;2022-10-16T23:38:54;11.40;99.90
18511;DHT22;9384;48.044;11.616;2022-10-16T23:41:21;11.30;99.90
18511;DHT22;9384;48.044;11.616;2022-10-16T23:43:49;11.40;99.90
18511;DHT22;9384;48.044;11.616;2022-10-16T23:46:16;11.40;99.90
18511;DHT22;9384;48.044;11.616;2022-10-16T23:48:43;11.40;99.90
18511;DHT22;9384;48.044;11.616;2022-10-16T23:51:10;11.20;99.90
18511;DHT22;9384;48.044;11.616;2022-10-16T23:53:38;11.10;99.90
18511;DHT22;9384;48.044;11.616;2022-10-16T23:56:05;11.00;99.90
18511;DHT22;9384;48.044;11.616;2022-10-16T23:58:32;11.00;99.90
